createdAt,value
2022-12-31T00:01:36.197Z,15.90
2022-12-31T00:04:05.969Z,15.93
2022-12-31T00:06:36.999Z,15.93
2022-12-31T00:09:08.211Z,15.96
2022-12-31T00:11:37.720Z,15.97
2022-12-31T00:14:07.135Z,16.00
2022-12-31T00:16:38.729Z,16.03
2022-12-31T00:19:09.595Z,16.06
2022-12-31T00:21:39.153Z,16.11
2022-12-31T00:24:08.573Z,16.16
2022-12-31T00:26:37.485Z,16.19
2022-12-31T00:29:06.844Z,16.23
2022-12-31T00:31:38.033Z,16.28
2022-12-31T00:34:07.296Z,16.31
2022-12-31T00:36:38.507Z,16.35
2022-12-31T00:39:09.280Z,16.42
2022-12-31T00:41:38.596Z,16.47
2022-12-31T00:44:07.000Z,16.50
2022-12-31T00:49:02.776Z,16.60
2022-12-31T00:51:31.798Z,16.65
2022-12-31T00:54:00.624Z,16.71
2022-12-31T00:56:31.966Z,16.74
2022-12-31T00:59:01.312Z,16.79
2022-12-31T01:01:36.518Z,16.83
2022-12-31T01:04:08.485Z,16.87
2022-12-31T01:06:37.418Z,16.92
2022-12-31T01:09:07.386Z,16.98
2022-12-31T01:11:36.082Z,17.02
2022-12-31T01:14:11.748Z,17.07
2022-12-31T01:16:45.540Z,17.13
2022-12-31T01:19:17.681Z,17.21
2022-12-31T01:21:47.337Z,17.28
2022-12-31T01:24:16.273Z,17.36
2022-12-31T01:26:45.528Z,17.42
2022-12-31T01:29:14.947Z,17.48
2022-12-31T01:31:43.231Z,17.56
2022-12-31T01:34:11.935Z,17.64
2022-12-31T01:36:41.081Z,17.71
2022-12-31T01:39:10.445Z,17.76
2022-12-31T01:41:44.674Z,17.82
2022-12-31T01:44:12.912Z,17.91
2022-12-31T01:46:51.255Z,18.00
2022-12-31T01:49:40.601Z,18.08
2022-12-31T01:52:22.202Z,18.15
2022-12-31T01:55:22.658Z,18.25
2022-12-31T01:57:55.037Z,18.32
2022-12-31T02:00:23.403Z,18.38
2022-12-31T02:02:52.214Z,18.48
2022-12-31T02:05:38.299Z,18.56
2022-12-31T02:08:07.948Z,18.64
2022-12-31T02:10:36.325Z,18.71
2022-12-31T02:13:05.002Z,18.78
2022-12-31T02:15:49.667Z,18.87
2022-12-31T02:18:57.205Z,18.97
2022-12-31T02:21:56.774Z,19.06
2022-12-31T02:24:38.177Z,19.13
2022-12-31T02:27:24.900Z,19.20
2022-12-31T02:30:08.085Z,19.25
2022-12-31T02:32:39.515Z,19.31
2022-12-31T02:35:21.315Z,19.38
2022-12-31T02:37:54.398Z,19.46
2022-12-31T02:40:24.479Z,19.53
2022-12-31T02:42:55.570Z,19.61
2022-12-31T02:45:31.226Z,19.69
2022-12-31T02:48:24.242Z,19.77
2022-12-31T02:51:32.776Z,19.84
2022-12-31T02:54:00.995Z,19.92
2022-12-31T02:56:34.435Z,19.98
2022-12-31T02:59:46.731Z,20.06
2022-12-31T03:02:20.596Z,20.17
2022-12-31T03:04:57.566Z,20.25
2022-12-31T03:07:29.549Z,20.31
2022-12-31T03:09:57.960Z,20.41
2022-12-31T03:12:48.104Z,20.52
2022-12-31T03:15:21.024Z,20.63
2022-12-31T03:18:07.514Z,20.74
2022-12-31T03:21:01.663Z,20.84
2022-12-31T03:23:32.363Z,20.94
2022-12-31T03:26:02.296Z,21.03
2022-12-31T03:28:32.139Z,21.10
2022-12-31T03:31:03.307Z,21.17
2022-12-31T03:33:37.483Z,21.24
2022-12-31T03:36:11.878Z,21.30
2022-12-31T03:38:40.508Z,21.37
2022-12-31T03:41:12.029Z,21.44
2022-12-31T03:43:40.364Z,21.49
2022-12-31T03:46:08.701Z,21.56
2022-12-31T03:48:37.076Z,21.63
2022-12-31T03:51:05.464Z,21.70
2022-12-31T03:53:35.764Z,21.77
2022-12-31T03:56:04.315Z,21.82
2022-12-31T03:58:32.600Z,21.90
2022-12-31T04:01:00.973Z,21.96
2022-12-31T04:03:29.709Z,22.04
2022-12-31T04:05:58.048Z,22.11
2022-12-31T04:08:26.613Z,22.17
2022-12-31T04:10:54.980Z,22.24
2022-12-31T04:13:23.293Z,22.29
2022-12-31T04:15:52.960Z,22.37
2022-12-31T04:18:21.276Z,22.46
2022-12-31T04:20:49.737Z,22.53
2022-12-31T04:23:18.375Z,22.60
2022-12-31T04:25:46.726Z,22.68
2022-12-31T04:28:15.053Z,22.73
2022-12-31T04:30:43.375Z,22.80
2022-12-31T04:33:11.734Z,22.87
2022-12-31T04:35:40.030Z,22.92
2022-12-31T04:38:08.330Z,22.97
2022-12-31T04:40:57.089Z,23.04
2022-12-31T04:43:25.387Z,23.11
2022-12-31T04:45:53.713Z,23.17
2022-12-31T04:48:22.046Z,23.23
2022-12-31T04:50:50.502Z,23.27
2022-12-31T04:53:18.865Z,23.33
2022-12-31T04:55:47.319Z,23.37
2022-12-31T04:58:15.655Z,23.43
2022-12-31T05:00:44.035Z,23.47
2022-12-31T05:03:12.375Z,23.51
2022-12-31T05:05:40.843Z,23.56
2022-12-31T05:08:09.169Z,23.60
2022-12-31T05:10:38.132Z,23.66
2022-12-31T05:13:06.416Z,23.69
2022-12-31T05:15:34.819Z,23.72
2022-12-31T05:18:03.352Z,23.77
2022-12-31T05:20:31.677Z,23.80
2022-12-31T05:23:00.081Z,23.83
2022-12-31T05:25:28.498Z,23.85
2022-12-31T05:27:56.848Z,23.88
2022-12-31T05:30:26.743Z,23.91
2022-12-31T05:32:55.808Z,23.97
2022-12-31T05:35:24.133Z,24.02
2022-12-31T05:37:52.488Z,24.05
2022-12-31T05:40:20.821Z,24.10
2022-12-31T05:42:50.424Z,24.15
2022-12-31T05:45:20.411Z,24.19
2022-12-31T05:47:51.107Z,24.22
2022-12-31T05:50:19.739Z,24.27
2022-12-31T05:52:48.427Z,24.31
2022-12-31T05:55:16.711Z,24.36
2022-12-31T05:57:46.067Z,24.41
2022-12-31T06:00:14.945Z,24.43
2022-12-31T06:02:43.329Z,24.44
2022-12-31T06:05:11.706Z,24.46
2022-12-31T06:07:40.049Z,24.47
2022-12-31T06:10:08.986Z,24.51
2022-12-31T06:12:37.596Z,24.55
2022-12-31T06:15:06.847Z,24.58
2022-12-31T06:17:35.153Z,24.63
2022-12-31T06:20:08.904Z,24.67
2022-12-31T06:22:41.676Z,24.71
2022-12-31T06:25:10.477Z,24.75
2022-12-31T06:27:38.827Z,24.78
2022-12-31T06:30:07.832Z,24.82
2022-12-31T06:32:36.388Z,24.84
2022-12-31T06:35:04.979Z,24.86
2022-12-31T06:37:33.239Z,24.90
2022-12-31T06:40:02.293Z,24.91
2022-12-31T06:42:37.273Z,24.98
2022-12-31T06:45:06.177Z,25.01
2022-12-31T06:47:34.452Z,25.04
2022-12-31T06:50:02.747Z,25.06
2022-12-31T06:52:31.077Z,25.08
2022-12-31T06:54:59.962Z,25.08
2022-12-31T06:57:28.767Z,25.11
2022-12-31T06:59:57.390Z,25.13
2022-12-31T07:02:43.756Z,25.14
2022-12-31T07:05:36.637Z,25.15
2022-12-31T07:08:33.876Z,25.17
2022-12-31T07:11:05.410Z,25.21
2022-12-31T07:13:58.353Z,25.21
2022-12-31T07:17:02.796Z,25.24
2022-12-31T07:19:55.450Z,25.26
2022-12-31T07:22:26.197Z,25.27
2022-12-31T07:24:54.885Z,25.29
2022-12-31T07:27:46.146Z,25.29
2022-12-31T07:30:21.540Z,25.30
2022-12-31T07:33:16.581Z,25.31
2022-12-31T07:36:31.556Z,25.33
2022-12-31T07:39:17.781Z,25.34
2022-12-31T07:42:15.508Z,25.33
2022-12-31T07:44:52.531Z,25.33
2022-12-31T07:47:24.772Z,25.34
2022-12-31T07:49:53.675Z,25.33
2022-12-31T07:52:22.969Z,25.34
2022-12-31T07:54:51.573Z,25.34
2022-12-31T07:57:22.280Z,25.35
2022-12-31T08:00:10.472Z,25.36
2022-12-31T08:02:41.885Z,25.35
2022-12-31T08:05:42.301Z,25.36
2022-12-31T08:08:51.042Z,25.35
2022-12-31T08:11:38.081Z,25.35
2022-12-31T08:14:11.653Z,25.37
2022-12-31T08:16:40.470Z,25.38
2022-12-31T08:19:15.853Z,25.38
2022-12-31T08:22:40.577Z,25.38
2022-12-31T08:25:39.243Z,25.39
2022-12-31T08:28:37.390Z,25.40
2022-12-31T08:31:28.986Z,25.40
2022-12-31T08:34:12.876Z,25.41
2022-12-31T08:36:55.320Z,25.42
2022-12-31T08:40:02.123Z,25.41
2022-12-31T08:42:54.938Z,25.40
2022-12-31T08:45:52.440Z,25.40
2022-12-31T08:48:30.524Z,25.39
2022-12-31T08:50:59.620Z,25.39
2022-12-31T08:53:28.512Z,25.38
2022-12-31T08:56:09.866Z,25.37
2022-12-31T08:59:00.324Z,25.36
2022-12-31T09:01:37.290Z,25.34
2022-12-31T09:04:38.185Z,25.32
2022-12-31T09:07:07.473Z,25.30
2022-12-31T09:10:03.033Z,25.29
2022-12-31T09:12:47.109Z,25.24
2022-12-31T09:15:48.743Z,25.20
2022-12-31T09:18:17.416Z,25.16
2022-12-31T09:20:46.074Z,25.11
2022-12-31T09:23:15.015Z,25.05
2022-12-31T09:26:07.817Z,25.00
2022-12-31T09:28:47.180Z,24.94
2022-12-31T09:31:29.133Z,24.87
2022-12-31T09:34:09.133Z,24.82
2022-12-31T09:37:17.617Z,24.77
2022-12-31T09:39:48.879Z,24.72
2022-12-31T09:42:42.181Z,24.67
2022-12-31T09:45:19.349Z,24.64
2022-12-31T09:48:14.912Z,24.59
2022-12-31T09:50:57.939Z,24.55
2022-12-31T09:54:00.150Z,24.51
2022-12-31T09:56:36.061Z,24.45
2022-12-31T09:59:14.059Z,24.40
2022-12-31T10:02:20.624Z,24.38
2022-12-31T10:05:44.113Z,24.32
2022-12-31T10:11:04.311Z,24.24
2022-12-31T10:13:41.646Z,24.20
2022-12-31T10:16:47.150Z,24.16
2022-12-31T10:19:18.574Z,24.11
2022-12-31T10:21:49.877Z,24.06
2022-12-31T10:24:42.538Z,23.99
2022-12-31T10:27:22.177Z,23.93
2022-12-31T10:30:12.869Z,23.86
2022-12-31T10:33:20.455Z,23.78
2022-12-31T10:36:10.987Z,23.69
2022-12-31T10:38:57.509Z,23.62
2022-12-31T10:41:46.927Z,23.56
2022-12-31T10:44:37.831Z,23.50
2022-12-31T10:47:24.299Z,23.43
2022-12-31T10:50:35.597Z,23.35
2022-12-31T10:53:29.459Z,23.27
2022-12-31T10:56:03.523Z,23.19
2022-12-31T10:58:31.767Z,23.14
2022-12-31T11:01:35.554Z,23.06
2022-12-31T11:04:37.385Z,22.99
2022-12-31T11:07:05.650Z,22.93
2022-12-31T11:09:58.178Z,22.87
2022-12-31T11:12:26.431Z,22.80
2022-12-31T11:15:13.454Z,22.74
2022-12-31T11:18:08.948Z,22.67
2022-12-31T11:20:56.906Z,22.59
2022-12-31T11:23:55.363Z,22.53
2022-12-31T11:26:33.246Z,22.46
2022-12-31T11:29:26.112Z,22.41
2022-12-31T11:32:08.987Z,22.38
2022-12-31T11:34:52.201Z,22.35
2022-12-31T11:37:30.840Z,22.31
2022-12-31T11:40:29.518Z,22.29
2022-12-31T11:43:22.309Z,22.28
2022-12-31T11:46:36.789Z,22.24
2022-12-31T11:49:14.918Z,22.19
2022-12-31T11:52:21.729Z,22.18
2022-12-31T11:55:05.054Z,22.13
2022-12-31T11:57:38.610Z,22.10
2022-12-31T12:00:22.739Z,22.07
2022-12-31T12:03:08.402Z,22.03
2022-12-31T12:05:37.696Z,22.01
2022-12-31T12:08:06.090Z,21.97
2022-12-31T12:10:38.500Z,21.94
2022-12-31T12:13:19.007Z,21.89
2022-12-31T12:15:52.006Z,21.88
2022-12-31T12:18:31.092Z,21.84
2022-12-31T12:21:06.713Z,21.82
2022-12-31T12:23:35.136Z,21.80
2022-12-31T12:26:03.577Z,21.78
2022-12-31T12:28:44.439Z,21.76
2022-12-31T12:31:22.056Z,21.73
2022-12-31T12:33:52.511Z,21.72
2022-12-31T12:36:22.558Z,21.70
2022-12-31T12:39:06.419Z,21.68
2022-12-31T12:41:34.794Z,21.66
2022-12-31T12:44:09.132Z,21.63
2022-12-31T12:46:47.954Z,21.56
2022-12-31T12:49:30.576Z,21.54
2022-12-31T12:52:17.178Z,21.50
2022-12-31T12:55:12.941Z,21.47
2022-12-31T12:57:59.796Z,21.41
2022-12-31T13:00:38.897Z,21.37
2022-12-31T13:04:32.309Z,21.33
2022-12-31T13:07:13.769Z,21.32
2022-12-31T13:10:09.371Z,21.33
2022-12-31T13:13:22.804Z,21.34
2022-12-31T13:15:40.951Z,21.35
2022-12-31T13:18:21.191Z,21.36
2022-12-31T13:20:59.962Z,21.35
2022-12-31T13:23:50.695Z,21.35
2022-12-31T13:26:25.788Z,21.34
2022-12-31T13:28:55.291Z,21.34
2022-12-31T13:31:40.452Z,21.32
2022-12-31T13:34:40.412Z,21.30
2022-12-31T13:37:39.105Z,21.27
2022-12-31T13:40:25.293Z,21.24
2022-12-31T13:43:03.526Z,21.22
2022-12-31T13:45:43.548Z,21.20
2022-12-31T13:48:20.438Z,21.16
2022-12-31T13:50:52.745Z,21.13
2022-12-31T13:53:32.257Z,21.11
2022-12-31T13:56:06.917Z,21.07
2022-12-31T13:58:39.332Z,21.04
2022-12-31T14:01:37.143Z,20.99
2022-12-31T14:04:11.560Z,20.97
2022-12-31T14:06:46.799Z,20.93
2022-12-31T14:09:23.199Z,20.91
2022-12-31T14:12:16.773Z,20.88
2022-12-31T14:15:09.129Z,20.84
2022-12-31T14:17:49.309Z,20.80
2022-12-31T14:20:20.715Z,20.75
2022-12-31T14:23:27.428Z,20.71
2022-12-31T14:26:04.575Z,20.65
2022-12-31T14:28:48.542Z,20.61
2022-12-31T14:31:46.821Z,20.54
2022-12-31T14:34:52.110Z,20.48
2022-12-31T14:37:40.502Z,20.43
2022-12-31T14:40:46.907Z,20.34
2022-12-31T14:43:26.548Z,20.29
2022-12-31T14:46:02.928Z,20.25
2022-12-31T14:48:43.156Z,20.21
2022-12-31T14:51:13.351Z,20.17
2022-12-31T14:53:52.184Z,20.14
2022-12-31T14:56:45.674Z,20.10
2022-12-31T14:59:34.467Z,20.10
2022-12-31T15:02:31.695Z,20.09
2022-12-31T15:05:12.287Z,20.10
2022-12-31T15:07:49.745Z,20.12
2022-12-31T15:10:50.593Z,20.14
2022-12-31T15:13:46.524Z,20.15
2022-12-31T15:16:20.348Z,20.16
2022-12-31T15:19:20.572Z,20.16
2022-12-31T15:22:02.245Z,20.16
2022-12-31T15:24:31.842Z,20.15
2022-12-31T15:27:06.474Z,20.17
2022-12-31T15:29:45.365Z,20.17
2022-12-31T15:32:26.314Z,20.15
2022-12-31T15:35:22.327Z,20.13
2022-12-31T15:38:18.200Z,20.11
2022-12-31T15:40:54.031Z,20.09
2022-12-31T15:43:48.440Z,20.09
2022-12-31T15:46:30.727Z,20.07
2022-12-31T15:49:13.427Z,20.04
2022-12-31T15:51:57.329Z,20.02
2022-12-31T15:54:44.813Z,20.00
2022-12-31T15:57:43.097Z,19.97
2022-12-31T16:00:24.051Z,19.95
2022-12-31T16:02:58.529Z,19.93
2022-12-31T16:05:28.715Z,19.91
2022-12-31T16:08:02.069Z,19.86
2022-12-31T16:10:33.038Z,19.84
2022-12-31T16:13:01.566Z,19.79
2022-12-31T16:15:33.741Z,19.75
2022-12-31T16:18:11.014Z,19.70
2022-12-31T16:20:49.402Z,19.67
2022-12-31T16:23:25.950Z,19.64
2022-12-31T16:25:59.306Z,19.59
2022-12-31T16:28:33.321Z,19.57
2022-12-31T16:31:08.987Z,19.55
2022-12-31T16:33:37.390Z,19.52
2022-12-31T16:36:06.170Z,19.48
2022-12-31T16:38:37.465Z,19.48
2022-12-31T16:41:09.975Z,19.45
2022-12-31T16:43:41.705Z,19.42
2022-12-31T16:46:28.578Z,19.38
2022-12-31T16:49:02.806Z,19.36
2022-12-31T16:51:35.113Z,19.32
2022-12-31T16:54:04.024Z,19.28
2022-12-31T16:56:40.503Z,19.25
2022-12-31T16:59:23.887Z,19.22
2022-12-31T17:01:53.260Z,19.19
2022-12-31T17:04:23.413Z,19.15
2022-12-31T17:06:51.886Z,19.11
2022-12-31T17:09:24.083Z,19.10
2022-12-31T17:12:10.500Z,19.07
2022-12-31T17:14:50.961Z,19.03
2022-12-31T17:17:31.118Z,19.00
2022-12-31T17:20:02.137Z,18.96
2022-12-31T17:22:36.750Z,18.92
2022-12-31T17:25:07.916Z,18.88
2022-12-31T17:27:37.985Z,18.84
2022-12-31T17:30:30.820Z,18.83
2022-12-31T17:33:22.691Z,18.79
2022-12-31T17:36:14.372Z,18.73
2022-12-31T17:38:43.576Z,18.72
2022-12-31T17:41:28.685Z,18.68
2022-12-31T17:43:58.997Z,18.66
2022-12-31T17:46:28.170Z,18.63
2022-12-31T17:49:02.481Z,18.59
2022-12-31T17:51:30.783Z,18.57
2022-12-31T17:54:01.856Z,18.51
2022-12-31T17:56:30.309Z,18.46
2022-12-31T17:58:58.708Z,18.43
2022-12-31T18:01:28.083Z,18.37
2022-12-31T18:03:57.721Z,18.35
2022-12-31T18:06:27.643Z,18.32
2022-12-31T18:08:55.938Z,18.28
2022-12-31T18:11:26.121Z,18.25
2022-12-31T18:13:55.834Z,18.22
2022-12-31T18:16:24.186Z,18.19
2022-12-31T18:18:55.269Z,18.17
2022-12-31T18:21:27.786Z,18.13
2022-12-31T18:26:24.616Z,18.05
2022-12-31T18:28:53.308Z,18.02
2022-12-31T18:31:23.354Z,17.96
2022-12-31T18:33:53.935Z,17.94
2022-12-31T18:36:25.353Z,17.90
2022-12-31T18:38:54.517Z,17.86
2022-12-31T18:41:27.913Z,17.82
2022-12-31T18:43:56.812Z,17.77
2022-12-31T18:46:28.005Z,17.73
2022-12-31T18:48:56.338Z,17.70
2022-12-31T18:51:31.840Z,17.65
2022-12-31T18:54:05.669Z,17.61
2022-12-31T18:56:33.958Z,17.59
2022-12-31T18:59:03.560Z,17.56
2022-12-31T19:01:38.104Z,17.53
2022-12-31T19:04:12.460Z,17.50
2022-12-31T19:06:40.849Z,17.47
2022-12-31T19:09:23.931Z,17.45
2022-12-31T19:11:57.519Z,17.43
2022-12-31T19:14:27.473Z,17.41
2022-12-31T19:16:56.755Z,17.38
2022-12-31T19:19:25.154Z,17.35
2022-12-31T19:21:53.454Z,17.32
2022-12-31T19:24:24.428Z,17.30
2022-12-31T19:26:52.712Z,17.26
2022-12-31T19:29:27.166Z,17.24
2022-12-31T19:31:55.936Z,17.21
2022-12-31T19:34:24.310Z,17.17
2022-12-31T19:36:52.638Z,17.14
2022-12-31T19:39:22.398Z,17.10
2022-12-31T19:41:58.542Z,17.08
2022-12-31T19:44:28.078Z,17.04
2022-12-31T19:46:56.553Z,17.01
2022-12-31T19:49:24.880Z,16.99
2022-12-31T19:51:53.196Z,16.96
2022-12-31T19:54:21.509Z,16.96
2022-12-31T19:56:49.876Z,16.96
2022-12-31T19:59:18.187Z,16.96
2022-12-31T20:01:46.658Z,16.95
2022-12-31T20:04:15.240Z,16.96
2022-12-31T20:06:43.583Z,16.97
2022-12-31T20:09:13.091Z,16.96
2022-12-31T20:11:41.415Z,16.95
2022-12-31T20:14:09.675Z,16.93
2022-12-31T20:16:37.994Z,16.92
2022-12-31T20:19:06.984Z,16.90
2022-12-31T20:21:35.356Z,16.88
2022-12-31T20:24:03.880Z,16.84
2022-12-31T20:26:32.255Z,16.81
2022-12-31T20:29:00.539Z,16.79
2022-12-31T20:31:29.092Z,16.79
2022-12-31T20:33:57.515Z,16.77
2022-12-31T20:36:26.720Z,16.76
2022-12-31T20:38:55.134Z,16.75
2022-12-31T20:41:24.858Z,16.74
2022-12-31T20:43:53.251Z,16.72
2022-12-31T20:46:26.696Z,16.71
2022-12-31T20:48:58.106Z,16.68
2022-12-31T20:51:28.025Z,16.67
2022-12-31T20:54:01.919Z,16.67
2022-12-31T20:56:33.612Z,16.66
2022-12-31T20:59:02.297Z,16.65
2022-12-31T21:01:55.117Z,16.63
2022-12-31T21:04:19.654Z,16.60
2022-12-31T21:06:49.012Z,16.58
2022-12-31T21:09:17.319Z,16.55
2022-12-31T21:12:04.006Z,16.51
2022-12-31T21:14:32.342Z,16.48
2022-12-31T21:17:00.672Z,16.46
2022-12-31T21:19:28.976Z,16.44
2022-12-31T21:21:57.286Z,16.44
2022-12-31T21:24:26.672Z,16.43
2022-12-31T21:26:58.660Z,16.42
2022-12-31T21:29:31.248Z,16.41
2022-12-31T21:32:02.586Z,16.39
2022-12-31T21:34:30.998Z,16.38
2022-12-31T21:36:59.282Z,16.35
2022-12-31T21:39:27.614Z,16.32
2022-12-31T21:41:55.930Z,16.29
2022-12-31T21:44:27.112Z,16.26
2022-12-31T21:47:38.580Z,16.23
2022-12-31T21:50:09.375Z,16.20
2022-12-31T21:52:37.765Z,16.16
2022-12-31T21:55:25.458Z,16.11
2022-12-31T22:01:00.796Z,16.05
2022-12-31T22:03:30.181Z,16.02
2022-12-31T22:06:11.484Z,15.99
2022-12-31T22:08:45.274Z,15.96
2022-12-31T22:11:14.863Z,15.93
2022-12-31T22:13:43.394Z,15.89
2022-12-31T22:16:13.590Z,15.86
2022-12-31T22:18:44.259Z,15.84
2022-12-31T22:21:21.063Z,15.83
2022-12-31T22:23:54.994Z,15.82
2022-12-31T22:26:26.644Z,15.83
2022-12-31T22:28:59.971Z,15.84
2022-12-31T22:31:33.865Z,15.84
2022-12-31T22:34:02.903Z,15.84
2022-12-31T22:36:31.291Z,15.84
2022-12-31T22:38:59.800Z,15.84
2022-12-31T22:41:29.699Z,15.84
2022-12-31T22:44:04.078Z,15.84
2022-12-31T22:46:33.957Z,15.82
2022-12-31T22:49:04.433Z,15.83
2022-12-31T22:51:56.617Z,15.81
2022-12-31T22:54:22.443Z,15.79
2022-12-31T22:56:50.762Z,15.77
2022-12-31T22:59:19.039Z,15.76
2022-12-31T23:01:47.592Z,15.74
2022-12-31T23:04:16.191Z,15.74
2022-12-31T23:06:44.552Z,15.72
2022-12-31T23:09:32.262Z,15.70
2022-12-31T23:12:01.176Z,15.69
2022-12-31T23:14:47.766Z,15.68
2022-12-31T23:17:40.033Z,15.67
2022-12-31T23:20:32.757Z,15.66
2022-12-31T23:23:13.834Z,15.66
2022-12-31T23:25:51.394Z,15.64
2022-12-31T23:28:26.815Z,15.63
2022-12-31T23:30:55.668Z,15.62
2022-12-31T23:33:27.801Z,15.59
2022-12-31T23:36:09.082Z,15.58
2022-12-31T23:38:37.404Z,15.56
2022-12-31T23:41:16.969Z,15.54
2022-12-31T23:43:46.487Z,15.51
2022-12-31T23:46:15.503Z,15.49
2022-12-31T23:48:44.131Z,15.48
2022-12-31T23:51:12.474Z,15.46
2022-12-31T23:53:40.972Z,15.44
2022-12-31T23:56:16.124Z,15.42
2022-12-31T23:58:46.144Z,15.41
